Time;durP1;ratioP1;P1;durP2;ratioP2;P2;SDS_P1;SDS_P2;PMS_P1;PMS_P2;Temp;Humidity;BMP_temperature;BMP_pressure;BME280_temperature;BME280_humidity;BME280_pressure;Samples;Min_cycle;Max_cycle;Signal;HPM_P1;HPM_P2
2022/01/05 04:00:52;;;;;;;2.10;0.70;;;5.50;90.90;;;;;;5921040;23;20477;-76
2022/01/05 04:03:20;;;;;;;1.90;0.60;;;5.10;90.70;;;;;;4995124;28;20425;-76
2022/01/05 04:05:46;;;;;;;1.93;0.60;;;5.10;91.50;;;;;;4995945;28;20449;-76
2022/01/05 04:08:13;;;;;;;2.00;0.63;;;5.10;91.80;;;;;;4995651;28;21007;-76
2022/01/05 04:10:40;;;;;;;1.90;0.70;;;5.10;91.90;;;;;;4995825;28;20449;-76
2022/01/05 04:13:07;;;;;;;2.20;0.70;;;5.10;91.60;;;;;;4995783;28;20453;-76
2022/01/05 04:18:01;;;;;;;1.90;0.60;;;5.20;91.80;;;;;;5054522;23;20530;-75
2022/01/05 04:20:28;;;;;;;2.97;0.80;;;5.40;91.90;;;;;;5034866;28;20634;-75
2022/01/05 04:22:54;;;;;;;1.90;0.60;;;5.50;90.80;;;;;;5034570;28;20501;-74
2022/01/05 04:25:21;;;;;;;1.97;0.60;;;5.40;90.70;;;;;;5034296;28;20431;-75
2022/01/05 04:27:48;;;;;;;1.97;0.67;;;5.50;91.50;;;;;;5034355;28;20975;-75
2022/01/05 04:30:15;;;;;;;1.97;0.60;;;5.50;91.10;;;;;;5034634;28;20443;-76
2022/01/05 04:32:41;;;;;;;1.90;0.60;;;5.50;90.90;;;;;;5034612;28;20856;-75
2022/01/05 04:35:13;;;;;;;1.90;0.60;;;5.50;90.20;;;;;;5034547;28;20452;-75
2022/01/05 04:37:41;;;;;;;1.90;0.60;;;5.70;90.50;;;;;;5034269;28;20562;-76
2022/01/05 04:40:09;;;;;;;1.90;0.60;;;5.80;89.80;;;;;;5034532;28;20443;-75
2022/01/05 04:42:35;;;;;;;1.90;0.50;;;5.80;89.20;;;;;;5034047;28;20459;-75
2022/01/05 04:45:03;;;;;;;1.97;0.60;;;5.50;89.60;;;;;;5034187;28;20463;-76
2022/01/05 04:47:30;;;;;;;2.10;0.60;;;5.70;90.20;;;;;;5033773;28;20545;-75
2022/01/05 04:49:57;;;;;;;2.97;0.60;;;5.70;89.40;;;;;;5033984;28;20489;-75
2022/01/05 04:52:25;;;;;;;1.90;0.60;;;5.90;90.70;;;;;;5034439;28;20451;-76
2022/01/05 04:54:51;;;;;;;1.90;0.60;;;6.10;90.00;;;;;;5032694;28;20858;-76
2022/01/05 04:57:18;;;;;;;2.20;0.70;;;6.30;88.30;;;;;;5033399;28;20479;-76
2022/01/05 04:59:45;;;;;;;1.90;0.60;;;6.00;88.10;;;;;;5033461;28;20451;-76
2022/01/05 05:02:12;;;;;;;1.90;0.60;;;6.00;88.60;;;;;;5033864;28;20501;-75
2022/01/05 05:04:39;;;;;;;1.90;0.60;;;5.90;88.40;;;;;;5033722;28;20521;-74
2022/01/05 05:07:06;;;;;;;1.90;0.60;;;5.90;88.60;;;;;;5033216;28;21004;-76
2022/01/05 05:09:34;;;;;;;2.10;0.60;;;5.70;88.80;;;;;;5033716;28;20454;-75
2022/01/05 05:12:01;;;;;;;1.90;0.60;;;5.80;89.10;;;;;;5033316;28;20451;-75
2022/01/05 05:14:27;;;;;;;1.90;0.60;;;5.70;89.30;;;;;;5033009;28;20439;-76
2022/01/05 05:16:54;;;;;;;1.93;0.57;;;5.80;89.20;;;;;;5033124;28;20475;-74
2022/01/05 05:19:21;;;;;;;2.00;0.70;;;5.70;89.30;;;;;;5033534;28;20482;-75
2022/01/05 05:21:47;;;;;;;2.00;0.60;;;5.70;89.30;;;;;;5033399;28;20456;-76
2022/01/05 05:24:15;;;;;;;2.00;0.60;;;5.70;89.70;;;;;;5033200;28;20874;-75
2022/01/05 05:26:43;;;;;;;1.90;0.60;;;5.80;89.50;;;;;;5033241;28;20841;-76
2022/01/05 05:29:10;;;;;;;2.00;0.60;;;6.00;89.30;;;;;;5033199;28;20656;-75
2022/01/05 05:31:37;;;;;;;1.90;0.60;;;6.00;88.50;;;;;;5033185;28;20528;-76
2022/01/05 05:34:03;;;;;;;1.90;0.60;;;6.10;88.30;;;;;;5033235;28;20478;-76
2022/01/05 05:36:30;;;;;;;1.97;0.60;;;6.10;88.30;;;;;;5033167;28;20525;-76
2022/01/05 05:38:57;;;;;;;1.90;0.60;;;6.10;88.00;;;;;;5032984;28;20501;-76
2022/01/05 05:41:23;;;;;;;1.90;0.60;;;6.00;86.70;;;;;;5033121;28;20455;-76
2022/01/05 05:43:51;;;;;;;1.90;0.60;;;5.80;83.30;;;;;;5032957;28;20818;-76
2022/01/05 05:46:19;;;;;;;2.00;0.70;;;5.50;82.10;;;;;;5033231;28;20774;-76
2022/01/05 05:48:45;;;;;;;1.90;0.60;;;5.20;83.00;;;;;;5032864;28;20482;-76
2022/01/05 05:51:12;;;;;;;2.00;0.70;;;5.10;83.00;;;;;;5032908;28;20455;-75
2022/01/05 05:53:39;;;;;;;1.97;0.60;;;4.80;83.30;;;;;;5033029;28;20451;-75
2022/01/05 05:56:06;;;;;;;2.00;0.70;;;4.80;84.10;;;;;;5032918;28;20471;-74
2022/01/05 05:58:32;;;;;;;1.97;0.60;;;4.70;84.00;;;;;;5032680;28;20860;-76
2022/01/05 06:01:00;;;;;;;2.00;0.70;;;4.50;84.40;;;;;;5032570;28;20906;-76
2022/01/05 06:03:27;;;;;;;2.03;0.67;;;4.40;85.50;;;;;;5032969;28;20443;-76
2022/01/05 06:05:54;;;;;;;2.00;0.70;;;4.40;85.70;;;;;;5032877;28;20443;-76
2022/01/05 06:08:20;;;;;;;1.97;0.70;;;4.40;85.50;;;;;;5032573;28;20974;-76
2022/01/05 06:10:47;;;;;;;2.00;0.70;;;4.40;85.70;;;;;;5032482;28;20810;-76
2022/01/05 06:13:14;;;;;;;1.90;0.60;;;4.40;85.70;;;;;;5032829;28;20876;-76
2022/01/05 06:15:40;;;;;;;2.00;0.70;;;4.40;85.20;;;;;;5032347;28;20849;-76
2022/01/05 06:18:08;;;;;;;2.00;0.70;;;4.30;85.40;;;;;;5032663;28;21000;-76
2022/01/05 06:20:35;;;;;;;2.30;1.03;;;4.40;85.60;;;;;;5032885;28;20504;-76
2022/01/05 06:23:02;;;;;;;1.90;0.70;;;4.40;85.60;;;;;;5032832;28;20447;-76
2022/01/05 06:25:29;;;;;;;2.20;0.70;;;4.40;85.10;;;;;;5033391;28;20451;-76
2022/01/05 06:27:55;;;;;;;2.10;0.80;;;4.40;84.80;;;;;;5036548;28;20494;-76
2022/01/05 06:30:22;;;;;;;2.00;0.70;;;4.40;85.20;;;;;;5036747;28;20439;-76
2022/01/05 06:32:49;;;;;;;2.23;0.87;;;4.50;85.40;;;;;;5036771;28;20451;-76
2022/01/05 06:35:19;;;;;;;2.00;0.77;;;4.60;85.20;;;;;;5036681;28;20814;-76
2022/01/05 06:37:46;;;;;;;3.80;0.90;;;4.60;84.90;;;;;;5036086;28;20984;-76
2022/01/05 06:40:13;;;;;;;2.00;0.70;;;4.60;84.90;;;;;;5036451;28;20480;-76
2022/01/05 06:42:40;;;;;;;3.07;0.90;;;4.60;85.10;;;;;;5036328;28;20938;-75
2022/01/05 06:45:07;;;;;;;2.17;0.80;;;4.60;85.00;;;;;;5037122;28;20520;-76
2022/01/05 06:47:34;;;;;;;2.87;0.80;;;4.60;85.30;;;;;;5036453;28;20537;-76
2022/01/05 06:50:01;;;;;;;2.93;0.80;;;4.60;85.10;;;;;;5036546;28;20496;-76
2022/01/05 06:52:29;;;;;;;2.20;0.83;;;4.70;85.20;;;;;;5036659;28;20501;-76
2022/01/05 06:54:55;;;;;;;2.00;0.90;;;4.80;85.00;;;;;;5036502;28;20478;-76
2022/01/05 06:57:22;;;;;;;2.00;0.70;;;4.80;84.90;;;;;;5036320;28;20478;-75
2022/01/05 06:59:49;;;;;;;2.43;0.83;;;5.00;85.00;;;;;;5036120;28;20481;-76
2022/01/05 07:02:16;;;;;;;2.20;0.97;;;5.10;84.90;;;;;;5036423;28;20454;-76
2022/01/05 07:04:42;;;;;;;2.10;0.70;;;5.10;83.80;;;;;;5036260;28;20505;-76
2022/01/05 07:07:09;;;;;;;2.10;0.70;;;5.10;83.60;;;;;;5035969;28;20482;-76
2022/01/05 07:09:37;;;;;;;2.00;0.70;;;5.20;83.60;;;;;;5036145;28;20447;-76
2022/01/05 07:12:05;;;;;;;2.03;0.67;;;5.40;83.10;;;;;;5036596;28;20493;-76
2022/01/05 07:14:31;;;;;;;1.90;0.60;;;5.40;82.80;;;;;;5036405;28;20490;-76
2022/01/05 07:16:58;;;;;;;2.00;0.70;;;5.40;82.80;;;;;;5035839;28;20493;-76
2022/01/05 07:19:25;;;;;;;2.07;0.70;;;5.30;82.60;;;;;;5035987;28;20935;-76
2022/01/05 07:21:51;;;;;;;2.00;0.77;;;5.30;82.80;;;;;;5036144;28;20461;-76
2022/01/05 07:24:19;;;;;;;2.10;0.70;;;5.30;82.90;;;;;;5036168;28;20458;-76
2022/01/05 07:26:49;;;;;;;2.80;1.10;;;5.20;83.00;;;;;;5035929;28;20477;-76
2022/01/05 07:29:17;;;;;;;2.07;0.77;;;5.10;82.70;;;;;;5035657;28;20478;-75
2022/01/05 07:31:44;;;;;;;2.40;0.73;;;5.00;82.20;;;;;;5036021;28;20543;-75
2022/01/05 07:34:11;;;;;;;2.77;0.80;;;4.90;82.10;;;;;;5035719;28;20593;-76
2022/01/05 07:36:38;;;;;;;2.20;0.80;;;4.90;82.10;;;;;;5034913;28;20517;-76
2022/01/05 07:39:06;;;;;;;2.20;1.13;;;4.80;82.00;;;;;;5034878;28;20475;-76
2022/01/05 07:41:33;;;;;;;2.37;0.80;;;4.70;81.60;;;;;;5035593;28;20443;-76
2022/01/05 07:44:01;;;;;;;2.27;0.90;;;4.70;81.70;;;;;;5035620;28;20456;-71
2022/01/05 07:46:28;;;;;;;4.40;1.00;;;4.50;81.20;;;;;;5035120;28;20978;-77
2022/01/05 07:48:55;;;;;;;3.53;1.00;;;4.40;81.30;;;;;;5035884;28;20486;-73
2022/01/05 07:51:21;;;;;;;2.27;1.00;;;4.40;81.30;;;;;;5036662;28;20809;-75
2022/01/05 07:53:48;;;;;;;3.13;1.10;;;4.20;81.40;;;;;;5036370;28;20462;-76
2022/01/05 07:56:15;;;;;;;2.60;1.27;;;4.20;81.60;;;;;;5035937;28;20471;-74
2022/01/05 07:58:41;;;;;;;2.20;1.00;;;4.20;81.50;;;;;;5035263;28;20443;-75
2022/01/05 08:01:09;;;;;;;2.20;0.90;;;4.20;81.60;;;;;;5035378;28;20451;-77
2022/01/05 08:03:37;;;;;;;2.30;1.13;;;4.10;80.80;;;;;;5035246;28;20451;-74
2022/01/05 08:06:05;;;;;;;2.10;0.90;;;4.10;81.70;;;;;;5034755;28;21049;-74
2022/01/05 08:08:32;;;;;;;2.10;0.90;;;4.20;82.10;;;;;;5034624;28;20986;-74
2022/01/05 08:10:59;;;;;;;2.70;1.10;;;4.30;82.00;;;;;;5035512;28;20833;-74
2022/01/05 08:13:26;;;;;;;2.33;1.07;;;4.40;81.30;;;;;;5035210;28;20451;-74
2022/01/05 08:15:53;;;;;;;2.30;0.93;;;4.30;80.80;;;;;;5034842;28;20458;-75
2022/01/05 08:18:21;;;;;;;2.77;1.20;;;4.40;81.60;;;;;;5034855;28;20779;-75
2022/01/05 08:20:48;;;;;;;3.37;1.13;;;4.40;81.00;;;;;;5034829;28;20875;-74
2022/01/05 08:23:16;;;;;;;2.17;1.00;;;4.30;80.60;;;;;;5034677;28;20447;-74
2022/01/05 08:25:43;;;;;;;2.20;1.10;;;4.30;80.10;;;;;;5034441;28;20443;-75
2022/01/05 08:28:11;;;;;;;2.50;0.87;;;4.40;80.70;;;;;;5034297;28;20483;-74
2022/01/05 08:30:38;;;;;;;2.43;0.93;;;4.50;80.70;;;;;;5034729;28;20451;-74
2022/01/05 08:33:05;;;;;;;2.87;1.13;;;4.60;80.20;;;;;;5034866;28;20451;-74
2022/01/05 08:35:34;;;;;;;2.40;0.90;;;4.70;80.00;;;;;;5034329;28;20456;-75
2022/01/05 08:38:00;;;;;;;2.20;0.83;;;4.70;79.50;;;;;;5034393;28;20444;-74
2022/01/05 08:40:27;;;;;;;2.80;0.90;;;4.60;78.70;;;;;;5034382;28;20458;-74
2022/01/05 08:42:55;;;;;;;2.50;1.00;;;4.60;78.80;;;;;;5034298;28;20505;-74
2022/01/05 08:45:23;;;;;;;2.03;0.80;;;4.60;79.10;;;;;;5034339;28;20443;-74
2022/01/05 08:47:52;;;;;;;2.20;0.80;;;4.40;77.80;;;;;;5034023;28;20487;-75
2022/01/05 08:50:21;;;;;;;2.27;1.00;;;4.20;77.30;;;;;;5035474;28;20447;-75
2022/01/05 08:52:50;;;;;;;2.40;0.93;;;4.00;78.20;;;;;;5034254;28;20439;-75
2022/01/05 08:55:19;;;;;;;3.43;1.00;;;4.00;78.50;;;;;;5034261;28;20451;-75
2022/01/05 08:57:46;;;;;;;2.73;1.03;;;4.00;78.40;;;;;;5034050;28;20555;-75
2022/01/05 09:00:13;;;;;;;2.20;0.90;;;4.10;77.80;;;;;;5034183;28;20460;-75
2022/01/05 09:02:40;;;;;;;2.50;1.20;;;4.20;77.40;;;;;;5034155;28;20447;-75
2022/01/05 09:05:08;;;;;;;2.30;1.10;;;4.30;77.60;;;;;;5033717;28;20458;-75
2022/01/05 09:07:35;;;;;;;2.50;1.03;;;4.20;77.30;;;;;;5033785;28;20483;-74
2022/01/05 09:10:04;;;;;;;2.20;0.97;;;4.20;78.10;;;;;;5033991;28;20505;-74
2022/01/05 09:12:31;;;;;;;2.47;1.20;;;4.20;78.30;;;;;;5033442;28;20931;-75
2022/01/05 09:14:58;;;;;;;2.53;1.10;;;4.20;77.40;;;;;;5033384;28;20947;-74
2022/01/05 09:17:25;;;;;;;2.47;1.10;;;4.30;77.40;;;;;;5033176;28;20483;-75
2022/01/05 09:19:52;;;;;;;2.50;1.07;;;4.10;75.00;;;;;;5033717;28;20445;-75
2022/01/05 09:22:19;;;;;;;2.73;1.20;;;4.20;75.70;;;;;;5033592;28;20501;-75
2022/01/05 09:24:46;;;;;;;2.30;1.00;;;4.30;75.40;;;;;;5033537;28;20517;-75
2022/01/05 09:27:14;;;;;;;2.53;1.00;;;4.40;75.40;;;;;;5033071;28;20990;-76
2022/01/05 09:29:41;;;;;;;2.50;1.10;;;4.50;75.20;;;;;;5033113;28;21027;-75
2022/01/05 09:32:09;;;;;;;2.97;0.90;;;4.40;73.90;;;;;;5033370;28;20485;-75
2022/01/05 09:34:37;;;;;;;2.50;1.13;;;4.40;73.60;;;;;;5033093;28;20451;-75
2022/01/05 09:37:09;;;;;;;2.20;0.90;;;4.50;72.90;;;;;;5033453;28;20466;-76
2022/01/05 09:42:22;;;;;;;2.27;1.20;;;4.60;73.20;;;;;;5033651;28;20526;-76
2022/01/05 09:44:49;;;;;;;2.27;1.07;;;4.70;73.00;;;;;;5032933;28;20806;-76
2022/01/05 09:47:44;;;;;;;5.10;1.30;;;4.80;73.60;;;;;;5033155;28;20474;-75
2022/01/05 09:50:13;;;;;;;2.50;1.03;;;4.80;71.90;;;;;;5033169;28;20470;-75
2022/01/05 09:52:42;;;;;;;2.40;1.10;;;4.90;73.60;;;;;;5033031;28;20439;-75
2022/01/05 09:55:10;;;;;;;2.40;0.80;;;5.00;72.60;;;;;;5032854;28;20451;-76
2022/01/05 09:57:40;;;;;;;2.60;1.00;;;4.90;71.10;;;;;;5032883;28;20469;-75
2022/01/05 10:00:08;;;;;;;2.20;0.80;;;4.80;70.90;;;;;;5033553;28;20454;-75
2022/01/05 10:02:35;;;;;;;4.67;1.17;;;4.70;71.40;;;;;;5033229;28;20501;-74
2022/01/05 10:05:02;;;;;;;2.53;1.10;;;4.90;70.80;;;;;;5033582;28;20447;-75
2022/01/05 10:07:29;;;;;;;2.40;1.20;;;4.90;71.40;;;;;;5032930;28;20463;-75
2022/01/05 10:09:55;;;;;;;2.67;1.43;;;4.90;72.00;;;;;;5033080;28;20475;-75
2022/01/05 10:12:22;;;;;;;2.17;0.90;;;4.80;70.50;;;;;;5033172;28;20447;-74
2022/01/05 10:14:50;;;;;;;2.73;1.10;;;4.80;71.00;;;;;;5034334;28;20887;-75
2022/01/05 10:17:26;;;;;;;3.20;1.03;;;4.80;70.50;;;;;;5152621;23;20486;-75
2022/01/05 10:19:57;;;;;;;3.57;1.50;;;4.70;70.30;;;;;;5033663;28;20423;-75
2022/01/05 10:22:29;;;;;;;4.03;1.60;;;4.70;69.80;;;;;;5033825;28;20443;-75
2022/01/05 10:24:56;;;;;;;4.60;1.80;;;4.50;69.90;;;;;;5033348;28;20509;-76
2022/01/05 10:27:25;;;;;;;2.33;1.20;;;4.30;68.40;;;;;;5033298;28;21013;-76
2022/01/05 10:29:56;;;;;;;2.97;1.27;;;4.10;69.10;;;;;;5033234;28;20483;-75
2022/01/05 10:32:23;;;;;;;2.40;1.10;;;4.20;70.50;;;;;;5033780;28;20447;-75
2022/01/05 10:35:07;;;;;;;2.40;0.90;;;4.00;69.10;;;;;;5033297;28;20947;-75
2022/01/05 10:37:35;;;;;;;4.73;1.43;;;4.20;69.80;;;;;;5033395;28;20479;-75
2022/01/05 10:40:07;;;;;;;2.67;1.27;;;4.30;68.80;;;;;;5033602;28;20447;-75
2022/01/05 10:42:34;;;;;;;2.30;1.00;;;4.40;69.90;;;;;;5033520;28;20506;-75
2022/01/05 10:45:05;;;;;;;2.50;1.10;;;4.70;69.50;;;;;;5033025;28;20979;-76
2022/01/05 10:47:33;;;;;;;2.30;0.93;;;5.10;70.40;;;;;;5033020;28;20479;-75
2022/01/05 10:49:59;;;;;;;3.10;1.40;;;5.40;69.00;;;;;;5033640;28;20479;-75
2022/01/05 10:52:28;;;;;;;3.43;1.00;;;5.40;66.90;;;;;;5033369;28;20526;-76
2022/01/05 10:54:56;;;;;;;2.50;1.10;;;5.50;66.90;;;;;;5033361;28;20447;-76
2022/01/05 10:57:23;;;;;;;2.67;1.13;;;5.30;65.50;;;;;;5033191;28;20823;-75
2022/01/05 10:59:53;;;;;;;2.77;1.53;;;5.40;66.70;;;;;;5033032;28;20938;-75
2022/01/05 11:02:30;;;;;;;2.70;1.13;;;5.30;64.40;;;;;;5033173;28;20452;-75
2022/01/05 11:05:12;;;;;;;2.50;1.13;;;5.70;64.40;;;;;;5033298;28;20435;-75
2022/01/05 11:07:42;;;;;;;2.63;1.17;;;6.00;61.90;;;;;;5033068;28;20525;-76
2022/01/05 11:10:11;;;;;;;2.50;1.00;;;6.00;62.50;;;;;;5033195;28;20479;-76
2022/01/05 11:12:40;;;;;;;3.33;1.10;;;6.20;62.50;;;;;;5035152;28;20451;-76
2022/01/05 11:15:21;;;;;;;3.33;1.07;;;6.10;62.00;;;;;;5036752;28;20459;-76
2022/01/05 11:18:11;;;;;;;2.60;1.10;;;5.90;63.30;;;;;;5036177;28;20479;-75
2022/01/05 11:20:38;;;;;;;2.90;1.20;;;5.80;62.60;;;;;;5036432;28;20498;-75
2022/01/05 11:23:06;;;;;;;2.50;1.10;;;5.70;63.70;;;;;;5036151;28;20800;-76
2022/01/05 11:25:35;;;;;;;2.63;0.93;;;5.70;64.20;;;;;;5036165;28;20934;-76
2022/01/05 11:28:02;;;;;;;7.60;1.97;;;5.80;64.60;;;;;;5036174;28;20471;-76
2022/01/05 11:30:29;;;;;;;2.30;1.00;;;5.90;64.30;;;;;;5036454;28;20483;-75
2022/01/05 11:32:56;;;;;;;2.93;1.00;;;5.90;63.30;;;;;;5036263;28;20460;-76
2022/01/05 11:35:24;;;;;;;2.83;0.90;;;5.60;62.20;;;;;;5036540;28;20448;-75
2022/01/05 11:37:51;;;;;;;2.90;1.20;;;5.50;63.60;;;;;;5035992;28;20525;-75
2022/01/05 11:40:19;;;;;;;3.67;1.27;;;5.70;63.70;;;;;;5035999;28;20489;-76
2022/01/05 11:42:48;;;;;;;3.53;1.50;;;5.60;63.70;;;;;;5036055;28;20444;-76
2022/01/05 11:45:28;;;;;;;3.07;1.30;;;5.50;64.20;;;;;;5036240;28;20526;-75
2022/01/05 11:48:13;;;;;;;2.37;1.20;;;5.50;65.20;;;;;;5035852;28;20467;-76
2022/01/05 11:50:46;;;;;;;2.10;0.80;;;5.20;64.40;;;;;;5035866;28;20501;-75
2022/01/05 11:53:13;;;;;;;4.00;1.40;;;5.40;66.70;;;;;;5035468;28;20954;-76
2022/01/05 11:56:08;;;;;;;2.83;1.10;;;5.50;66.20;;;;;;5035663;28;20501;-76
2022/01/05 11:58:36;;;;;;;3.87;1.10;;;5.80;64.80;;;;;;5035776;28;20432;-75
2022/01/05 12:01:22;;;;;;;2.33;1.10;;;6.00;65.60;;;;;;5036424;28;20447;-76
2022/01/05 12:04:01;;;;;;;3.50;1.20;;;6.30;64.70;;;;;;5036069;28;20512;-77
2022/01/05 12:06:32;;;;;;;2.43;1.10;;;6.70;62.40;;;;;;5036704;28;20467;-76
2022/01/05 12:08:59;;;;;;;2.70;1.30;;;7.20;61.30;;;;;;5036835;28;20562;-76
2022/01/05 12:11:30;;;;;;;2.43;1.10;;;8.20;59.00;;;;;;5036189;28;20450;-76
2022/01/05 12:13:57;;;;;;;3.50;1.50;;;10.60;57.30;;;;;;5035942;28;20451;-76
2022/01/05 12:16:24;;;;;;;2.50;1.10;;;12.80;49.80;;;;;;5035801;28;20440;-77
2022/01/05 12:19:05;;;;;;;2.70;1.17;;;14.50;46.00;;;;;;5036004;28;20428;-76
2022/01/05 12:21:45;;;;;;;2.87;1.23;;;17.10;44.30;;;;;;5036163;28;20448;-76
2022/01/05 12:24:12;;;;;;;3.40;1.33;;;19.10;38.70;;;;;;5035389;28;20462;-77
2022/01/05 12:26:39;;;;;;;2.80;1.23;;;20.40;37.90;;;;;;5035771;28;20518;-76
2022/01/05 12:29:06;;;;;;;3.00;1.20;;;19.80;36.80;;;;;;5035398;28;20861;-77
2022/01/05 12:31:58;;;;;;;2.57;0.97;;;20.70;35.90;;;;;;5036476;28;20808;-77
2022/01/05 12:34:49;;;;;;;2.50;1.10;;;21.90;35.30;;;;;;5036289;28;20878;-73
2022/01/05 12:37:39;;;;;;;2.40;0.90;;;21.40;33.30;;;;;;5037082;28;20482;-76
2022/01/05 12:40:27;;;;;;;2.50;1.00;;;18.90;35.80;;;;;;5038106;28;20794;-77
2022/01/05 12:43:34;;;;;;;2.50;1.20;;;17.40;38.10;;;;;;5038148;28;20443;-75
2022/01/05 12:46:05;;;;;;;3.23;1.23;;;15.00;41.40;;;;;;5038231;28;20458;-76
2022/01/05 12:49:02;;;;;;;2.30;1.03;;;12.50;45.00;;;;;;5037325;28;20443;-75
2022/01/05 12:51:43;;;;;;;2.60;1.30;;;11.20;47.70;;;;;;5037435;28;20440;-75
2022/01/05 12:54:16;;;;;;;2.20;0.90;;;10.20;49.50;;;;;;5037371;28;20863;-76
2022/01/05 12:56:45;;;;;;;2.80;1.00;;;10.00;50.70;;;;;;5037080;28;20471;-76
2022/01/05 12:59:17;;;;;;;2.43;1.10;;;9.60;50.80;;;;;;5036612;28;20966;-75
2022/01/05 13:01:45;;;;;;;4.33;1.50;;;9.10;52.50;;;;;;5036112;28;20443;-76
2022/01/05 13:04:13;;;;;;;2.90;1.20;;;9.80;52.30;;;;;;5035592;28;20447;-76
2022/01/05 13:06:42;;;;;;;3.20;1.20;;;12.40;48.80;;;;;;5036025;28;20475;-77
2022/01/05 13:09:13;;;;;;;3.40;1.40;;;14.90;43.60;;;;;;5035766;28;20486;-76
2022/01/05 13:11:43;;;;;;;2.20;0.90;;;16.70;40.80;;;;;;5036093;28;20506;-76
2022/01/05 13:14:20;;;;;;;2.90;1.23;;;18.80;36.50;;;;;;5036809;28;20447;-77
2022/01/05 13:16:50;;;;;;;2.20;1.00;;;19.50;35.80;;;;;;5034472;28;20541;-77
2022/01/05 13:19:42;;;;;;;2.50;1.20;;;20.20;33.90;;;;;;5034526;28;20448;-76
2022/01/05 13:22:17;;;;;;;3.50;1.27;;;22.00;32.70;;;;;;5031102;28;20943;-76
2022/01/05 13:24:51;;;;;;;2.50;1.27;;;23.20;31.50;;;;;;5034025;28;20843;-76
2022/01/05 13:27:19;;;;;;;3.00;1.10;;;23.80;31.10;;;;;;5033972;28;20796;-76
2022/01/05 13:29:47;;;;;;;2.80;1.10;;;23.50;30.20;;;;;;5033873;28;20483;-76
2022/01/05 13:32:15;;;;;;;2.97;1.30;;;21.70;31.40;;;;;;5033883;28;20513;-75
2022/01/05 13:34:45;;;;;;;2.30;1.00;;;20.20;33.10;;;;;;5033824;28;21010;-76
2022/01/05 13:37:14;;;;;;;2.17;0.90;;;19.60;34.20;;;;;;5034001;28;20471;-76
2022/01/05 13:39:47;;;;;;;2.40;1.30;;;19.20;34.80;;;;;;5033732;28;20443;-76
2022/01/05 13:42:15;;;;;;;3.07;1.30;;;18.40;35.30;;;;;;5033551;28;20451;-75
2022/01/05 13:44:43;;;;;;;2.40;1.03;;;17.50;36.30;;;;;;5033738;28;20447;-75
2022/01/05 13:47:12;;;;;;;2.20;0.90;;;17.90;37.30;;;;;;5033792;28;20467;-75
2022/01/05 13:49:39;;;;;;;3.07;1.10;;;18.20;36.00;;;;;;5033935;28;20479;-76
2022/01/05 13:52:11;;;;;;;3.07;1.00;;;18.70;35.20;;;;;;5033978;28;20448;-75
2022/01/05 13:54:40;;;;;;;2.70;1.17;;;19.20;34.70;;;;;;5033550;28;20443;-76
2022/01/05 13:57:25;;;;;;;2.87;1.20;;;19.10;34.10;;;;;;5033519;28;20467;-75
2022/01/05 13:59:58;;;;;;;2.47;1.00;;;19.40;34.40;;;;;;5033519;28;20511;-76
2022/01/05 14:02:25;;;;;;;3.37;1.20;;;19.20;35.40;;;;;;5033533;28;20431;-76
2022/01/05 14:04:55;;;;;;;2.67;1.20;;;18.40;36.10;;;;;;5033333;28;20446;-76
2022/01/05 14:07:23;;;;;;;2.73;1.30;;;17.70;36.60;;;;;;5033234;28;20467;-76
2022/01/05 14:10:11;;;;;;;2.80;1.10;;;16.70;37.80;;;;;;5033033;28;20529;-76
2022/01/05 14:12:41;;;;;;;2.77;1.30;;;15.00;39.70;;;;;;5033372;28;20436;-76
2022/01/05 14:15:11;;;;;;;2.40;1.10;;;13.70;42.30;;;;;;5033430;28;20849;-75
2022/01/05 14:17:38;;;;;;;2.90;1.33;;;12.80;44.10;;;;;;5032880;28;20899;-75
2022/01/05 14:20:16;;;;;;;3.60;1.70;;;12.10;45.20;;;;;;5033041;28;20791;-75
2022/01/05 14:22:44;;;;;;;2.27;1.00;;;11.00;47.00;;;;;;5033166;28;20521;-75
2022/01/05 14:25:11;;;;;;;2.67;1.00;;;10.00;49.00;;;;;;5033147;28;20470;-75
2022/01/05 14:27:42;;;;;;;6.60;1.53;;;9.10;50.50;;;;;;5033200;28;20521;-75
2022/01/05 14:30:11;;;;;;;3.57;1.83;;;8.60;52.30;;;;;;5033116;28;20550;-76
2022/01/05 14:32:40;;;;;;;4.00;2.50;;;8.40;53.40;;;;;;5033247;28;20535;-76
2022/01/05 14:35:20;;;;;;;3.27;1.40;;;8.00;54.00;;;;;;5033467;28;20451;-76
2022/01/05 14:38:01;;;;;;;3.13;1.43;;;7.60;55.10;;;;;;5035372;28;20471;-77
2022/01/05 14:40:30;;;;;;;3.00;1.47;;;7.40;55.90;;;;;;5035628;28;20428;-76
2022/01/05 14:43:00;;;;;;;2.70;1.03;;;7.30;56.40;;;;;;5034499;28;20451;-76
2022/01/05 14:45:28;;;;;;;2.53;1.10;;;7.20;56.80;;;;;;5033027;28;20463;-76
2022/01/05 14:47:54;;;;;;;2.43;1.07;;;7.10;57.20;;;;;;5035630;28;20477;-76
2022/01/05 14:50:21;;;;;;;2.20;0.80;;;7.00;57.90;;;;;;5037246;28;20479;-79
2022/01/05 14:52:48;;;;;;;2.20;0.80;;;6.80;58.10;;;;;;5037657;28;20446;-78
2022/01/05 14:55:16;;;;;;;2.60;0.97;;;6.70;58.80;;;;;;5038090;28;20451;-76
2022/01/05 14:57:43;;;;;;;2.80;1.20;;;6.50;59.00;;;;;;5036418;28;20475;-75
2022/01/05 15:00:14;;;;;;;2.37;0.90;;;6.20;58.90;;;;;;5036422;28;20447;-76
2022/01/05 15:02:41;;;;;;;2.87;1.10;;;6.20;59.90;;;;;;5036595;28;20440;-75
2022/01/05 15:05:08;;;;;;;2.97;1.23;;;6.20;60.90;;;;;;5036334;28;20455;-75
2022/01/05 15:07:35;;;;;;;2.70;0.90;;;6.10;60.50;;;;;;5036352;28;20463;-75
2022/01/05 15:10:02;;;;;;;2.50;1.03;;;6.10;61.20;;;;;;5036204;28;20479;-75
2022/01/05 15:12:28;;;;;;;2.80;1.00;;;6.10;61.30;;;;;;5036342;28;20448;-75
2022/01/05 15:14:55;;;;;;;3.50;1.50;;;5.90;61.60;;;;;;5036330;28;20446;-76
2022/01/05 15:17:24;;;;;;;2.30;0.90;;;5.80;61.90;;;;;;5035940;28;20483;-75
2022/01/05 15:19:52;;;;;;;4.03;1.33;;;5.80;62.40;;;;;;5036178;28;20439;-75
2022/01/05 15:22:19;;;;;;;3.10;1.57;;;5.80;62.00;;;;;;5036160;28;20547;-76
2022/01/05 15:24:45;;;;;;;2.40;0.93;;;5.50;61.90;;;;;;5036049;28;20454;-76
2022/01/05 15:27:12;;;;;;;2.77;1.10;;;5.40;62.60;;;;;;5035669;28;21052;-76
2022/01/05 15:29:39;;;;;;;2.20;0.90;;;5.30;62.60;;;;;;5035612;28;21000;-75
2022/01/05 15:32:06;;;;;;;3.17;1.00;;;5.20;62.50;;;;;;5036087;28;20534;-75
2022/01/05 15:34:35;;;;;;;2.30;1.00;;;5.10;63.40;;;;;;5035868;28;20505;-76
2022/01/05 15:37:01;;;;;;;3.00;1.00;;;5.00;62.70;;;;;;5035523;28;21128;-76
2022/01/05 15:39:28;;;;;;;3.07;1.10;;;4.90;62.90;;;;;;5035846;28;20447;-75
2022/01/05 15:41:55;;;;;;;2.40;1.07;;;4.70;62.50;;;;;;5035669;28;20452;-75
2022/01/05 15:44:23;;;;;;;2.30;1.00;;;4.40;63.20;;;;;;5035689;28;20820;-75
2022/01/05 15:46:50;;;;;;;3.20;0.90;;;4.50;64.60;;;;;;5035706;28;20473;-76
2022/01/05 15:49:17;;;;;;;2.73;1.03;;;4.60;64.00;;;;;;5035543;28;20538;-75
2022/01/05 15:51:48;;;;;;;2.40;1.00;;;4.70;64.00;;;;;;5035464;28;20482;-76
2022/01/05 15:54:14;;;;;;;2.67;0.90;;;4.70;63.60;;;;;;5035447;28;20431;-75
2022/01/05 15:56:49;;;;;;;2.63;1.20;;;4.60;62.90;;;;;;5035079;28;20905;-75
2022/01/05 16:02:03;;;;;;;2.60;1.00;;;4.90;63.00;;;;;;5035412;28;20465;-75
2022/01/05 16:04:31;;;;;;;2.30;1.00;;;5.00;63.20;;;;;;5035324;28;20448;-76
2022/01/05 16:06:59;;;;;;;2.70;1.20;;;5.10;63.10;;;;;;5035194;28;20468;-75
2022/01/05 16:09:27;;;;;;;2.33;0.90;;;5.20;63.10;;;;;;5035167;28;20495;-75
2022/01/05 16:11:54;;;;;;;2.43;1.10;;;5.40;63.00;;;;;;5034808;28;21008;-76
2022/01/05 16:14:21;;;;;;;2.87;1.20;;;5.40;62.20;;;;;;5035152;28;20449;-75
2022/01/05 16:16:48;;;;;;;3.20;1.37;;;5.30;61.60;;;;;;5034509;28;20892;-74
2022/01/05 16:19:15;;;;;;;2.97;1.23;;;5.10;63.60;;;;;;5036552;28;20521;-75
2022/01/05 16:21:42;;;;;;;2.60;1.10;;;5.10;63.90;;;;;;5035018;28;20444;-78
2022/01/05 16:24:11;;;;;;;2.90;1.40;;;5.10;63.40;;;;;;5035025;28;20993;-78
2022/01/05 16:26:37;;;;;;;2.53;1.07;;;4.90;64.10;;;;;;5034970;28;20819;-78
2022/01/05 16:29:04;;;;;;;3.23;1.00;;;4.90;64.00;;;;;;5034991;28;20455;-78
2022/01/05 16:31:32;;;;;;;3.07;1.10;;;4.90;63.70;;;;;;5034975;28;20490;-78
2022/01/05 16:33:59;;;;;;;2.40;1.10;;;4.70;64.50;;;;;;5035209;28;20447;-78
2022/01/05 16:36:26;;;;;;;2.30;1.20;;;4.60;64.30;;;;;;5034962;28;20844;-78
2022/01/05 16:38:53;;;;;;;3.03;1.00;;;4.70;65.10;;;;;;5035549;28;20454;-78
2022/01/05 16:41:21;;;;;;;2.77;1.27;;;4.50;65.30;;;;;;5034389;28;20443;-77
2022/01/05 16:43:48;;;;;;;2.50;1.00;;;4.40;67.10;;;;;;5034855;28;20451;-77
2022/01/05 16:46:16;;;;;;;2.87;1.17;;;4.30;67.40;;;;;;5034814;28;20451;-77
2022/01/05 16:48:43;;;;;;;3.20;1.30;;;4.30;67.30;;;;;;5035173;28;20530;-78
2022/01/05 16:51:10;;;;;;;2.30;0.90;;;4.40;67.30;;;;;;5038344;28;20529;-77
2022/01/05 16:53:37;;;;;;;2.97;1.43;;;4.50;67.00;;;;;;5040250;28;20458;-78
2022/01/05 16:56:05;;;;;;;3.30;1.20;;;4.60;66.80;;;;;;5039491;28;20458;-78
2022/01/05 17:01:17;;;;;;;2.30;1.00;;;4.40;67.60;;;;;;5038834;28;20410;-78
2022/01/05 17:03:44;;;;;;;2.67;1.00;;;4.20;67.40;;;;;;5038911;28;20442;-77
2022/01/05 17:06:11;;;;;;;2.60;1.10;;;4.20;67.40;;;;;;5038083;28;20451;-78
2022/01/05 17:08:39;;;;;;;2.97;1.10;;;4.20;67.60;;;;;;5036398;28;20505;-78
2022/01/05 17:11:06;;;;;;;3.40;1.17;;;4.20;67.60;;;;;;5033919;28;20489;-78
2022/01/05 17:13:34;;;;;;;2.83;1.00;;;4.20;68.00;;;;;;5034179;28;20447;-78
2022/01/05 17:16:01;;;;;;;2.83;1.00;;;4.00;67.50;;;;;;5034312;28;20943;-78